Time;durP1;ratioP1;P1;durP2;ratioP2;P2;SDS_P1;SDS_P2;PMS_P1;PMS_P2;Temp;Humidity;BMP_temperature;BMP_pressure;BME280_temperature;BME280_humidity;BME280_pressure;Samples;Min_cycle;Max_cycle;Signal;HPM_P1;HPM_P2
2023/03/25 00:00:14;;;;;;;;;;;;;;;14.87;65.93;99703.22;1053794;28;641;-72
2023/03/25 00:01:07;;;;;;;;;;;;;;;14.85;65.65;99698.03;1056301;28;1126;-73
2023/03/25 00:01:58;;;;;;;;;;;;;;;14.84;66.04;99707.09;1056757;28;801;-72
2023/03/25 00:02:49;;;;;;;;;;;;;;;14.90;65.59;99702.91;1052657;28;689;-72
2023/03/25 00:03:45;;;;;;;;;;;;;;;14.92;65.73;99709.81;1052669;28;633;-72
2023/03/25 00:04:38;;;;;;;;;;;;;;;14.87;65.52;99696.03;1055203;28;941;-71
2023/03/25 00:05:28;;;;;;;;;;;;;;;14.85;65.42;99706.09;1057412;28;692;-72
2023/03/25 00:06:18;;;;;;;;;;;;;;;14.85;65.33;99706.09;1054833;28;786;-71
2023/03/25 00:07:09;;;;;;;;;;;;;;;14.90;65.35;99709.13;1052493;28;680;-71
2023/03/25 00:08:00;;;;;;;;;;;;;;;14.87;65.59;99704.06;1055937;28;1232;-71
2023/03/25 00:08:50;;;;;;;;;;;;;;;14.89;65.62;99706.59;1056606;28;1230;-71
2023/03/25 00:09:41;;;;;;;;;;;;;;;14.90;65.53;99703.75;1053591;28;692;-70
2023/03/25 00:10:31;;;;;;;;;;;;;;;14.89;65.18;99707.44;1053058;28;1209;-70
2023/03/25 00:11:22;;;;;;;;;;;;;;;14.84;65.42;99704.41;1053581;28;637;-70
2023/03/25 00:12:12;;;;;;;;;;;;;;;14.84;65.43;99699.03;1053069;28;657;-71
2023/03/25 00:13:04;;;;;;;;;;;;;;;14.85;65.57;99713.28;1056802;28;633;-71
2023/03/25 00:13:54;;;;;;;;;;;;;;;14.83;66.02;99704.56;1053184;28;670;-71
2023/03/25 00:14:53;;;;;;;;;;;;;;;14.79;65.86;99714.75;1056721;28;628;-71
2023/03/25 00:15:46;;;;;;;;;;;;;;;14.79;65.92;99706.69;1057844;28;740;-71
2023/03/25 00:16:36;;;;;;;;;;;;;;;14.80;66.00;99702.19;1057892;28;908;-71
2023/03/25 00:17:29;;;;;;;;;;;;;;;14.81;65.68;99701.19;1052882;28;1955;-72
2023/03/25 00:18:21;;;;;;;;;;;;;;;14.82;65.84;99697.50;1052413;28;669;-72
2023/03/25 00:19:12;;;;;;;;;;;;;;;14.80;66.14;99707.53;1054173;28;724;-71
2023/03/25 00:20:10;;;;;;;;;;;;;;;14.82;65.60;99703.72;1051611;28;752;-72
2023/03/25 00:21:01;;;;;;;;;;;;;;;14.82;65.98;99710.91;1053705;28;1170;-72
2023/03/25 00:21:51;;;;;;;;;;;;;;;14.79;65.74;99716.59;1054687;28;1162;-71
2023/03/25 00:22:43;;;;;;;;;;;;;;;14.78;65.44;99705.00;1057901;27;1779;-71
2023/03/25 00:23:33;;;;;;;;;;;;;;;14.77;65.91;99703.31;1054403;27;1245;-72
2023/03/25 00:24:23;;;;;;;;;;;;;;;14.82;65.50;99701.03;1056618;28;1340;-72
2023/03/25 00:25:16;;;;;;;;;;;;;;;14.78;65.98;99698.81;1055054;28;677;-72
2023/03/25 00:26:06;;;;;;;;;;;;;;;14.76;65.81;99693.59;1052582;28;649;-71
2023/03/25 00:26:57;;;;;;;;;;;;;;;14.78;66.02;99701.47;1055165;28;771;-71
2023/03/25 00:27:47;;;;;;;;;;;;;;;14.78;66.02;99698.81;1052386;28;697;-71
2023/03/25 00:28:37;;;;;;;;;;;;;;;14.80;66.56;99699.50;1052696;28;1065;-71
2023/03/25 00:29:28;;;;;;;;;;;;;;;14.80;66.01;99696.81;1056053;28;664;-71
2023/03/25 00:30:19;;;;;;;;;;;;;;;14.80;66.32;99705.69;1049610;28;1126;-72
2023/03/25 00:31:10;;;;;;;;;;;;;;;14.83;66.05;99701.88;1052022;28;637;-72
2023/03/25 00:32:00;;;;;;;;;;;;;;;14.78;66.07;99705.00;1054185;28;704;-71
2023/03/25 00:32:53;;;;;;;;;;;;;;;14.78;66.32;99702.31;1052958;28;661;-72
2023/03/25 00:33:44;;;;;;;;;;;;;;;14.76;66.17;99706.16;1052844;28;1789;-71
2023/03/25 00:34:40;;;;;;;;;;;;;;;14.75;66.35;99708.00;1052663;28;1488;-71
2023/03/25 00:35:31;;;;;;;;;;;;;;;14.79;66.04;99711.22;1053224;28;1127;-71
2023/03/25 00:36:22;;;;;;;;;;;;;;;14.81;65.81;99703.88;1057116;28;729;-71
2023/03/25 00:37:16;;;;;;;;;;;;;;;14.80;65.86;99692.28;1056371;28;1914;-71
2023/03/25 00:38:06;;;;;;;;;;;;;;;14.79;66.16;99706.69;1054097;28;1680;-71
2023/03/25 00:38:57;;;;;;;;;;;;;;;14.80;66.42;99704.84;1052325;28;602;-71
2023/03/25 00:39:47;;;;;;;;;;;;;;;14.78;66.32;99702.31;1055794;28;688;-71
2023/03/25 00:40:38;;;;;;;;;;;;;;;14.79;66.01;99711.22;1057848;27;1257;-71
2023/03/25 00:41:28;;;;;;;;;;;;;;;14.77;65.96;99705.16;1056971;28;664;-71
2023/03/25 00:42:24;;;;;;;;;;;;;;;14.75;66.28;99728.59;1056377;28;705;-71
2023/03/25 00:43:15;;;;;;;;;;;;;;;14.73;66.29;99707.31;1055923;28;822;-71
2023/03/25 00:44:05;;;;;;;;;;;;;;;14.75;66.03;99709.84;1056557;28;1075;-71
2023/03/25 00:44:56;;;;;;;;;;;;;;;14.76;66.07;99704.31;1053555;28;677;-71
2023/03/25 00:45:46;;;;;;;;;;;;;;;14.73;66.25;99701.09;1053523;28;727;-71
2023/03/25 00:46:37;;;;;;;;;;;;;;;14.72;66.38;99700.25;1053442;28;625;-71
2023/03/25 00:47:27;;;;;;;;;;;;;;;14.69;65.92;99695.19;1053284;28;1216;-71
2023/03/25 00:48:17;;;;;;;;;;;;;;;14.71;65.91;99708.44;1056608;28;649;-71
2023/03/25 00:49:08;;;;;;;;;;;;;;;14.68;66.02;99715.00;1055694;28;941;-71
2023/03/25 00:49:58;;;;;;;;;;;;;;;14.64;65.86;99705.56;1057778;28;640;-71
2023/03/25 00:50:49;;;;;;;;;;;;;;;14.66;66.28;99690.16;1057243;27;1790;-71
2023/03/25 00:51:39;;;;;;;;;;;;;;;14.69;66.58;99700.56;1056561;28;700;-72
2023/03/25 00:52:30;;;;;;;;;;;;;;;14.69;65.63;99724.69;1056220;28;1232;-71
2023/03/25 00:53:20;;;;;;;;;;;;;;;14.68;66.60;99698.91;1053629;28;692;-73
2023/03/25 00:54:10;;;;;;;;;;;;;;;14.68;66.14;99698.91;1055379;28;674;-72
2023/03/25 00:55:01;;;;;;;;;;;;;;;14.69;66.32;99689.00;1052269;28;669;-69
2023/03/25 00:55:52;;;;;;;;;;;;;;;14.68;66.08;99690.84;1056092;28;948;-71
2023/03/25 00:56:42;;;;;;;;;;;;;;;14.72;66.52;99696.72;1057137;28;1177;-71
2023/03/25 00:57:33;;;;;;;;;;;;;;;14.71;66.46;99698.56;1056913;28;1951;-71
2023/03/25 00:58:23;;;;;;;;;;;;;;;14.71;66.28;99695.03;1052172;28;614;-71
2023/03/25 00:59:14;;;;;;;;;;;;;;;14.73;66.05;99690.38;1052762;28;941;-71
2023/03/25 01:00:06;;;;;;;;;;;;;;;14.72;65.88;99697.56;1056036;28;1166;-70
2023/03/25 01:00:56;;;;;;;;;;;;;;;14.70;66.44;99699.56;1053471;28;865;-70
2023/03/25 01:01:46;;;;;;;;;;;;;;;14.67;66.41;99702.56;1054066;28;1162;-70
2023/03/25 01:02:40;;;;;;;;;;;;;;;14.67;66.84;99686.47;1053489;28;676;-70
2023/03/25 01:03:31;;;;;;;;;;;;;;;14.67;66.21;99693.69;1054100;28;629;-70
2023/03/25 01:04:21;;;;;;;;;;;;;;;14.68;66.72;99698.06;1052817;28;700;-71
2023/03/25 01:05:12;;;;;;;;;;;;;;;14.67;66.27;99689.16;1053192;28;684;-71
2023/03/25 01:06:02;;;;;;;;;;;;;;;14.68;66.74;99703.41;1052830;28;642;-71
2023/03/25 01:06:53;;;;;;;;;;;;;;;14.67;66.50;99688.31;1057687;28;1226;-71
2023/03/25 01:07:44;;;;;;;;;;;;;;;14.69;66.70;99700.56;1056434;28;1432;-70
2023/03/25 01:08:34;;;;;;;;;;;;;;;14.67;66.80;99707.94;1056290;28;1167;-70
2023/03/25 01:09:25;;;;;;;;;;;;;;;14.64;66.09;99708.25;1056266;28;650;-71
2023/03/25 01:10:15;;;;;;;;;;;;;;;14.63;66.81;99692.31;1055444;28;664;-70
2023/03/25 01:11:06;;;;;;;;;;;;;;;14.64;66.34;99702.88;1052147;28;681;-70
2023/03/25 01:11:56;;;;;;;;;;;;;;;14.63;66.59;99694.97;1052272;28;716;-70
2023/03/25 01:12:46;;;;;;;;;;;;;;;14.62;66.57;99693.28;1055798;28;1206;-71
2023/03/25 01:13:37;;;;;;;;;;;;;;;14.64;66.01;99694.84;1055771;28;693;-71
2023/03/25 01:14:28;;;;;;;;;;;;;;;14.68;66.37;99698.06;1056349;28;1229;-71
2023/03/25 01:15:18;;;;;;;;;;;;;;;14.65;66.42;99688.47;1053373;28;623;-72
2023/03/25 01:16:08;;;;;;;;;;;;;;;14.61;66.41;99691.59;1052747;28;1321;-71
2023/03/25 01:16:59;;;;;;;;;;;;;;;14.59;66.77;99695.28;1053340;28;610;-72
2023/03/25 01:17:49;;;;;;;;;;;;;;;14.65;66.78;99691.16;1053261;28;1225;-72
2023/03/25 01:18:40;;;;;;;;;;;;;;;14.69;66.41;99695.19;1053398;28;684;-72
2023/03/25 01:19:31;;;;;;;;;;;;;;;14.70;66.50;99691.50;1056486;28;1119;-71
2023/03/25 01:20:21;;;;;;;;;;;;;;;14.72;66.22;99694.03;1053433;28;680;-71
2023/03/25 01:21:11;;;;;;;;;;;;;;;14.70;66.24;99685.31;1053773;28;681;-71
2023/03/25 01:22:02;;;;;;;;;;;;;;;14.68;66.11;99693.53;1053444;27;1368;-71
2023/03/25 01:22:52;;;;;;;;;;;;;;;14.65;66.22;99693.84;1054036;28;705;-72
2023/03/25 01:23:43;;;;;;;;;;;;;;;14.63;66.36;99690.47;1056164;28;1142;-71
2023/03/25 01:24:33;;;;;;;;;;;;;;;14.65;66.42;99685.78;1055945;28;776;-71
2023/03/25 01:25:24;;;;;;;;;;;;;;;14.64;66.66;99694.84;1055990;28;1095;-71
2023/03/25 01:26:14;;;;;;;;;;;;;;;14.63;66.07;99694.97;1055388;28;705;-72
2023/03/25 01:27:04;;;;;;;;;;;;;;;14.62;66.55;99709.38;1056579;28;632;-72
2023/03/25 01:27:55;;;;;;;;;;;;;;;14.62;66.08;99701.34;1055844;28;701;-71
2023/03/25 01:28:45;;;;;;;;;;;;;;;14.59;66.29;99684.56;1058185;28;663;-72
2023/03/25 01:29:36;;;;;;;;;;;;;;;14.62;66.58;99680.72;1052572;28;710;-71
2023/03/25 01:30:26;;;;;;;;;;;;;;;14.62;66.28;99693.28;1053405;28;669;-71
2023/03/25 01:31:17;;;;;;;;;;;;;;;14.61;66.07;99697.81;1052519;28;614;-72
2023/03/25 01:32:07;;;;;;;;;;;;;;;14.63;66.56;99690.47;1053873;28;1087;-72
2023/03/25 01:32:58;;;;;;;;;;;;;;;14.63;66.46;99686.94;1054035;28;743;-71
2023/03/25 01:33:48;;;;;;;;;;;;;;;14.64;66.22;99691.31;1056203;28;1104;-71
2023/03/25 01:34:41;;;;;;;;;;;;;;;14.68;66.38;99688.19;1054935;28;1051;-72
2023/03/25 01:35:32;;;;;;;;;;;;;;;14.66;66.25;99690.16;1056803;28;723;-71
2023/03/25 01:36:23;;;;;;;;;;;;;;;14.63;66.32;99684.25;1055844;28;693;-71
2023/03/25 01:37:14;;;;;;;;;;;;;;;14.58;66.47;99682.88;1056679;28;1975;-70
2023/03/25 01:38:04;;;;;;;;;;;;;;;14.59;66.38;99679.19;1056300;28;637;-70
2023/03/25 01:38:55;;;;;;;;;;;;;;;14.61;66.24;99687.09;1054209;28;1027;-70
2023/03/25 01:39:46;;;;;;;;;;;;;;;14.59;66.44;99684.56;1056918;28;621;-71
2023/03/25 01:40:36;;;;;;;;;;;;;;;14.60;66.59;99688.09;1057855;27;957;-70
2023/03/25 01:41:27;;;;;;;;;;;;;;;14.59;66.35;99683.72;1059955;27;677;-71
2023/03/25 01:42:17;;;;;;;;;;;;;;;14.59;66.90;99689.06;1056653;28;824;-71
2023/03/25 01:43:08;;;;;;;;;;;;;;;14.58;66.78;99695.44;1056129;28;630;-73
2023/03/25 01:43:58;;;;;;;;;;;;;;;14.54;66.84;99694.03;1056756;28;697;-71
2023/03/25 01:44:49;;;;;;;;;;;;;;;14.57;67.07;99701.78;1056541;28;669;-71
2023/03/25 01:45:39;;;;;;;;;;;;;;;14.58;66.86;99692.75;1057354;28;1094;-71
2023/03/25 01:46:29;;;;;;;;;;;;;;;14.56;66.74;99689.38;1056026;28;676;-71
2023/03/25 01:47:21;;;;;;;;;;;;;;;14.59;66.43;99694.44;1051963;28;733;-72
2023/03/25 01:48:12;;;;;;;;;;;;;;;14.61;66.67;99688.94;1052535;28;694;-71
2023/03/25 01:49:03;;;;;;;;;;;;;;;14.59;66.87;99694.44;1051795;28;693;-71
2023/03/25 01:49:53;;;;;;;;;;;;;;;14.57;66.62;99694.59;1052726;28;673;-72
2023/03/25 01:50:44;;;;;;;;;;;;;;;14.58;67.02;99684.72;1055673;28;1087;-72
2023/03/25 01:51:34;;;;;;;;;;;;;;;14.57;66.58;99693.75;1056235;27;1553;-72
2023/03/25 01:52:25;;;;;;;;;;;;;;;14.55;66.46;99693.06;1053797;28;688;-71
2023/03/25 01:53:15;;;;;;;;;;;;;;;14.57;66.88;99697.28;1053162;28;661;-71
2023/03/25 01:54:05;;;;;;;;;;;;;;;14.56;66.74;99700.09;1060773;27;672;-71
2023/03/25 01:54:56;;;;;;;;;;;;;;;14.58;66.49;99682.88;1053389;28;732;-72
2023/03/25 01:55:46;;;;;;;;;;;;;;;14.60;66.74;99690.75;1056449;28;1158;-71
2023/03/25 01:56:37;;;;;;;;;;;;;;;14.56;66.44;99695.59;1055073;28;661;-72
2023/03/25 01:57:30;;;;;;;;;;;;;;;14.56;66.96;99681.34;1056227;28;1889;-73
2023/03/25 01:58:20;;;;;;;;;;;;;;;14.56;66.61;99689.38;1055113;28;728;-71
2023/03/25 01:59:11;;;;;;;;;;;;;;;14.53;66.58;99695.03;1055877;28;1111;-72
2023/03/25 02:00:05;;;;;;;;;;;;;;;14.52;67.05;99688.00;1055697;28;710;-71
2023/03/25 02:00:56;;;;;;;;;;;;;;;14.53;66.56;99697.72;1055283;28;1171;-71
2023/03/25 02:01:46;;;;;;;;;;;;;;;14.53;67.05;99698.56;1053250;28;633;-71
2023/03/25 02:02:39;;;;;;;;;;;;;;;14.55;66.50;99703.78;1052392;28;634;-71
2023/03/25 02:03:29;;;;;;;;;;;;;;;14.51;67.06;99697.06;1052994;28;1130;-71
2023/03/25 02:04:21;;;;;;;;;;;;;;;14.50;66.96;99695.38;1057328;28;669;-71
2023/03/25 02:05:12;;;;;;;;;;;;;;;14.54;66.81;99686.84;1057888;28;1044;-71
2023/03/25 02:06:04;;;;;;;;;;;;;;;14.52;66.64;99690.69;1056810;28;658;-71
2023/03/25 02:06:56;;;;;;;;;;;;;;;14.50;67.15;99690.00;1057132;28;1086;-72
2023/03/25 02:07:46;;;;;;;;;;;;;;;14.50;66.65;99692.69;1056792;28;773;-72
2023/03/25 02:08:38;;;;;;;;;;;;;;;14.49;66.59;99688.31;1051270;28;642;-71
2023/03/25 02:09:28;;;;;;;;;;;;;;;14.52;67.19;99686.16;1054519;28;1186;-71
2023/03/25 02:10:19;;;;;;;;;;;;;;;14.47;66.73;99685.78;1057360;28;672;-72
2023/03/25 02:11:09;;;;;;;;;;;;;;;14.48;66.60;99687.47;1056040;28;1193;-72
2023/03/25 02:12:00;;;;;;;;;;;;;;;14.45;66.93;99681.56;1056037;28;669;-71
2023/03/25 02:12:50;;;;;;;;;;;;;;;14.47;66.83;99685.78;1052054;28;716;-72
2023/03/25 02:13:41;;;;;;;;;;;;;;;14.49;66.94;99680.28;1055284;28;1159;-72
2023/03/25 02:14:31;;;;;;;;;;;;;;;14.47;66.66;99683.13;1055599;28;737;-72
2023/03/25 02:15:21;;;;;;;;;;;;;;;14.48;66.96;99681.28;1052584;28;632;-72
2023/03/25 02:16:12;;;;;;;;;;;;;;;14.46;67.25;99683.25;1057855;28;1046;-72
2023/03/25 02:17:03;;;;;;;;;;;;;;;14.44;66.84;99687.94;1055728;28;685;-72
2023/03/25 02:17:53;;;;;;;;;;;;;;;14.43;67.22;99683.56;1053251;28;614;-72
2023/03/25 02:18:44;;;;;;;;;;;;;;;14.44;67.05;99678.06;1052602;28;700;-72
2023/03/25 02:19:34;;;;;;;;;;;;;;;14.43;67.10;99675.53;1052617;28;652;-72
2023/03/25 02:20:25;;;;;;;;;;;;;;;14.46;67.18;99684.09;1055036;28;1083;-73
2023/03/25 02:21:17;;;;;;;;;;;;;;;14.46;67.71;99677.91;1058294;27;1556;-72
2023/03/25 02:22:10;;;;;;;;;;;;;;;14.50;67.62;99679.28;1052605;28;641;-72
2023/03/25 02:23:00;;;;;;;;;;;;;;;14.49;67.18;99670.41;1056248;28;1090;-72
2023/03/25 02:23:56;;;;;;;;;;;;;;;14.49;67.35;99681.13;1055019;28;717;-72
2023/03/25 02:24:52;;;;;;;;;;;;;;;14.47;67.40;99676.91;1055905;28;1158;-72
2023/03/25 02:25:44;;;;;;;;;;;;;;;14.47;67.82;99679.59;1055942;28;698;-71
2023/03/25 02:26:35;;;;;;;;;;;;;;;14.47;67.79;99668.88;1055851;28;673;-72
2023/03/25 02:27:32;;;;;;;;;;;;;;;14.47;67.40;99676.91;1057498;27;1466;-72
2023/03/25 02:28:24;;;;;;;;;;;;;;;14.44;67.96;99674.53;1053208;28;621;-72
2023/03/25 02:29:15;;;;;;;;;;;;;;;14.45;67.53;99678.91;1056509;28;1145;-71
2023/03/25 02:30:06;;;;;;;;;;;;;;;14.44;67.44;99685.25;1056680;28;1000;-71
2023/03/25 02:30:56;;;;;;;;;;;;;;;14.44;67.19;99680.72;1053097;28;612;-71
2023/03/25 02:31:47;;;;;;;;;;;;;;;14.43;67.53;99676.38;1053038;28;716;-71
2023/03/25 02:32:37;;;;;;;;;;;;;;;14.41;67.60;99674.84;1055712;28;677;-72
2023/03/25 02:33:28;;;;;;;;;;;;;;;14.45;67.35;99682.41;1057221;28;1114;-72
2023/03/25 02:34:18;;;;;;;;;;;;;;;14.45;67.46;99687.78;1056099;28;633;-72
2023/03/25 02:35:08;;;;;;;;;;;;;;;14.44;67.66;99686.09;1052081;28;681;-71
2023/03/25 02:36:00;;;;;;;;;;;;;;;14.43;67.61;99680.88;1055023;28;1170;-71
2023/03/25 02:36:51;;;;;;;;;;;;;;;14.43;67.75;99686.25;1055838;28;710;-73
2023/03/25 02:37:45;;;;;;;;;;;;;;;14.42;67.66;99687.25;1052043;28;1910;-72
2023/03/25 02:38:36;;;;;;;;;;;;;;;14.37;67.35;99674.25;1055242;28;706;-72
2023/03/25 02:39:27;;;;;;;;;;;;;;;14.39;67.66;99676.78;1051800;28;705;-72
2023/03/25 02:40:17;;;;;;;;;;;;;;;14.40;67.83;99675.78;1055832;28;985;-72
2023/03/25 02:41:08;;;;;;;;;;;;;;;14.41;67.36;99677.50;1053657;28;672;-71
2023/03/25 02:41:58;;;;;;;;;;;;;;;14.39;68.00;99682.16;1056124;27;1546;-71
2023/03/25 02:42:49;;;;;;;;;;;;;;;14.38;67.33;99677.78;1055300;28;630;-71
2023/03/25 02:43:39;;;;;;;;;;;;;;;14.37;67.44;99674.25;1053775;28;1083;-70
2023/03/25 02:44:30;;;;;;;;;;;;;;;14.34;68.00;99679.91;1057240;28;913;-71
2023/03/25 02:45:20;;;;;;;;;;;;;;;14.36;67.66;99677.94;1055069;28;1082;-71
2023/03/25 02:46:11;;;;;;;;;;;;;;;14.32;67.63;99671.22;1055248;28;630;-71
2023/03/25 02:47:01;;;;;;;;;;;;;;;14.35;68.19;99681.59;1055794;28;1210;-71
2023/03/25 02:47:52;;;;;;;;;;;;;;;14.37;67.92;99671.56;1057225;28;717;-71
2023/03/25 02:48:42;;;;;;;;;;;;;;;14.40;67.88;99673.13;1055943;28;1165;-71
2023/03/25 02:49:33;;;;;;;;;;;;;;;14.40;67.52;99674.00;1055761;28;783;-71
2023/03/25 02:50:23;;;;;;;;;;;;;;;14.40;67.90;99670.44;1055846;28;1110;-71
2023/03/25 02:51:13;;;;;;;;;;;;;;;14.42;67.76;99672.00;1055673;28;697;-71
2023/03/25 02:52:04;;;;;;;;;;;;;;;14.40;67.68;99673.13;1052330;28;676;-71
2023/03/25 02:52:55;;;;;;;;;;;;;;;14.37;68.00;99673.41;1054605;28;987;-70
2023/03/25 02:53:45;;;;;;;;;;;;;;;14.37;67.93;99668.91;1056809;28;681;-72
2023/03/25 02:54:38;;;;;;;;;;;;;;;14.34;68.11;99673.72;1057055;28;952;-70
2023/03/25 02:55:32;;;;;;;;;;;;;;;14.32;68.06;99665.84;1056591;28;681;-71
2023/03/25 02:56:24;;;;;;;;;;;;;;;14.37;68.20;99666.22;1054126;28;1224;-71
2023/03/25 02:57:14;;;;;;;;;;;;;;;14.34;67.92;99663.84;1052441;28;653;-71
2023/03/25 02:58:05;;;;;;;;;;;;;;;14.38;67.67;99661.69;1053490;28;1158;-70
2023/03/25 02:58:55;;;;;;;;;;;;;;;14.35;68.00;99662.00;1052397;28;688;-71
2023/03/25 02:59:45;;;;;;;;;;;;;;;14.35;67.43;99662.84;1056614;28;1098;-71
2023/03/25 03:00:39;;;;;;;;;;;;;;;14.37;67.93;99651.97;1057174;28;689;-70
2023/03/25 03:01:33;;;;;;;;;;;;;;;14.38;67.91;99648.28;1055913;28;1181;-70
2023/03/25 03:02:24;;;;;;;;;;;;;;;14.35;68.14;99660.16;1056517;28;932;-70
2023/03/25 03:03:14;;;;;;;;;;;;;;;14.34;67.81;99652.28;1056138;28;824;-70
2023/03/25 03:04:05;;;;;;;;;;;;;;;14.32;67.70;99644.41;1056133;28;676;-70
2023/03/25 03:04:55;;;;;;;;;;;;;;;14.28;67.41;99652.91;1056084;28;633;-70
2023/03/25 03:05:46;;;;;;;;;;;;;;;14.30;67.87;99646.41;1055147;28;1000;-70
2023/03/25 03:06:37;;;;;;;;;;;;;;;14.31;68.02;99655.28;1056425;28;1131;-70
2023/03/25 03:07:27;;;;;;;;;;;;;;;14.34;67.98;99646.91;1055551;28;682;-71
2023/03/25 03:08:18;;;;;;;;;;;;;;;14.37;67.39;99646.59;1056503;28;701;-71
2023/03/25 03:09:09;;;;;;;;;;;;;;;14.37;68.01;99649.28;1052390;28;669;-71
2023/03/25 03:09:59;;;;;;;;;;;;;;;14.40;67.40;99654.34;1051717;28;744;-71
2023/03/25 03:10:50;;;;;;;;;;;;;;;14.38;67.27;99648.28;1057335;28;839;-71
2023/03/25 03:11:40;;;;;;;;;;;;;;;14.34;68.03;99644.22;1052513;28;634;-71
2023/03/25 03:12:30;;;;;;;;;;;;;;;14.36;67.90;99639.56;1052507;28;637;-71
2023/03/25 03:13:21;;;;;;;;;;;;;;;14.38;67.80;99645.63;1054343;28;1111;-71
2023/03/25 03:14:12;;;;;;;;;;;;;;;14.35;67.88;99645.91;1053044;28;680;-72
2023/03/25 03:15:03;;;;;;;;;;;;;;;14.32;67.88;99646.25;1054544;28;1167;-71
2023/03/25 03:15:53;;;;;;;;;;;;;;;14.30;67.74;99646.41;1055996;28;700;-71
2023/03/25 03:16:43;;;;;;;;;;;;;;;14.32;67.80;99638.22;1054834;28;757;-72
2023/03/25 03:17:34;;;;;;;;;;;;;;;14.33;67.79;99645.25;1051654;28;1898;-72
2023/03/25 03:18:25;;;;;;;;;;;;;;;14.32;68.21;99647.09;1055636;28;1079;-71
2023/03/25 03:19:20;;;;;;;;;;;;;;;14.32;68.31;99648.94;1055273;28;720;-71
2023/03/25 03:20:10;;;;;;;;;;;;;;;14.32;68.38;99638.22;1052395;28;929;-72
2023/03/25 03:21:05;;;;;;;;;;;;;;;14.29;68.10;99638.50;1056450;28;650;-72
2023/03/25 03:21:56;;;;;;;;;;;;;;;14.29;68.56;99654.59;1053775;28;1176;-72
2023/03/25 03:22:51;;;;;;;;;;;;;;;14.30;67.94;99643.72;1056291;28;630;-71
2023/03/25 03:23:41;;;;;;;;;;;;;;;14.30;68.22;99641.03;1054345;28;1118;-72
2023/03/25 03:24:32;;;;;;;;;;;;;;;14.27;67.94;99649.38;1058004;28;641;-72
2023/03/25 03:25:22;;;;;;;;;;;;;;;14.24;68.10;99647.84;1056264;28;680;-71
2023/03/25 03:26:13;;;;;;;;;;;;;;;14.23;67.81;99656.88;1056534;27;1613;-71
2023/03/25 03:27:03;;;;;;;;;;;;;;;14.23;67.88;99651.50;1055978;27;1513;-70
2023/03/25 03:27:54;;;;;;;;;;;;;;;14.29;67.76;99650.06;1057625;28;1474;-71
2023/03/25 03:28:44;;;;;;;;;;;;;;;14.30;67.89;99653.59;1053570;28;846;-71
2023/03/25 03:29:35;;;;;;;;;;;;;;;14.30;68.23;99651.75;1057379;28;1142;-72
2023/03/25 03:30:26;;;;;;;;;;;;;;;14.34;68.31;99654.94;1056745;28;696;-71
2023/03/25 03:31:16;;;;;;;;;;;;;;;14.34;68.15;99655.78;1054646;28;627;-72
2023/03/25 03:32:07;;;;;;;;;;;;;;;14.30;68.18;99645.56;1056801;28;1257;-72
2023/03/25 03:32:59;;;;;;;;;;;;;;;14.28;67.99;99642.19;1056141;28;706;-72
2023/03/25 03:33:50;;;;;;;;;;;;;;;14.30;68.07;99640.19;1053107;28;1143;-71
2023/03/25 03:34:43;;;;;;;;;;;;;;;14.29;67.83;99633.16;1056807;28;671;-71
2023/03/25 03:35:33;;;;;;;;;;;;;;;14.23;67.99;99642.63;1053838;28;657;-71
2023/03/25 03:36:24;;;;;;;;;;;;;;;14.28;68.02;99629.63;1052516;28;657;-71
2023/03/25 03:37:15;;;;;;;;;;;;;;;14.24;68.19;99631.75;1053792;28;633;-71
2023/03/25 03:38:08;;;;;;;;;;;;;;;14.25;68.34;99641.50;1054739;28;1127;-71
2023/03/25 03:38:58;;;;;;;;;;;;;;;14.22;68.62;99623.03;1057503;28;661;-72
2023/03/25 03:39:49;;;;;;;;;;;;;;;14.21;68.40;99631.22;1057206;28;1154;-71
2023/03/25 03:40:39;;;;;;;;;;;;;;;14.22;68.55;99639.09;1056102;28;1265;-73
2023/03/25 03:41:29;;;;;;;;;;;;;;;14.22;68.55;99625.72;1056718;28;1185;-72
2023/03/25 03:42:20;;;;;;;;;;;;;;;14.25;68.30;99622.72;1056069;28;708;-70
2023/03/25 03:43:10;;;;;;;;;;;;;;;14.24;68.59;99630.91;1056938;28;739;-73
2023/03/25 03:44:01;;;;;;;;;;;;;;;14.27;68.04;99627.09;1056430;28;953;-73
2023/03/25 03:44:52;;;;;;;;;;;;;;;14.27;68.46;99630.63;1057498;28;708;-71
2023/03/25 03:45:42;;;;;;;;;;;;;;;14.22;68.61;99636.44;1056023;28;753;-73
2023/03/25 03:46:32;;;;;;;;;;;;;;;14.20;68.59;99634.88;1053202;28;676;-73
2023/03/25 03:47:23;;;;;;;;;;;;;;;14.23;68.68;99630.06;1057185;28;1177;-73
2023/03/25 03:48:13;;;;;;;;;;;;;;;14.23;68.52;99624.72;1056764;28;631;-73
2023/03/25 03:49:04;;;;;;;;;;;;;;;14.25;68.60;99641.50;1054260;28;1063;-72
2023/03/25 03:49:54;;;;;;;;;;;;;;;14.21;68.52;99637.41;1056137;28;673;-72
2023/03/25 03:50:45;;;;;;;;;;;;;;;14.20;68.11;99629.53;1057321;28;765;-71
2023/03/25 03:51:35;;;;;;;;;;;;;;;14.24;68.16;99626.41;1056698;28;1146;-72
2023/03/25 03:52:26;;;;;;;;;;;;;;;14.20;68.66;99629.53;1054340;28;677;-72
2023/03/25 03:53:16;;;;;;;;;;;;;;;14.25;68.63;99627.25;1053672;28;622;-70
2023/03/25 03:54:07;;;;;;;;;;;;;;;14.23;68.70;99630.06;1053878;28;649;-71
2023/03/25 03:54:57;;;;;;;;;;;;;;;14.24;68.57;99641.63;1053359;28;1139;-71
2023/03/25 03:55:48;;;;;;;;;;;;;;;14.24;68.16;99639.81;1053832;28;704;-71
2023/03/25 03:56:40;;;;;;;;;;;;;;;14.24;68.47;99637.13;1052576;28;1082;-70
2023/03/25 03:57:30;;;;;;;;;;;;;;;14.19;68.75;99627.84;1054812;28;1902;-70
2023/03/25 03:58:22;;;;;;;;;;;;;;;14.22;68.67;99627.53;1056466;28;692;-71
2023/03/25 03:59:13;;;;;;;;;;;;;;;14.21;68.89;99632.06;1058476;28;759;-71
2023/03/25 04:00:05;;;;;;;;;;;;;;;14.27;68.05;99619.06;1052422;28;657;-71
2023/03/25 04:00:56;;;;;;;;;;;;;;;14.24;68.09;99631.75;1054603;28;1139;-71
2023/03/25 04:01:46;;;;;;;;;;;;;;;14.24;68.42;99629.09;1057391;28;729;-71
2023/03/25 04:02:37;;;;;;;;;;;;;;;14.24;68.52;99631.75;1052375;28;709;-71
2023/03/25 04:03:27;;;;;;;;;;;;;;;14.24;68.61;99637.13;1053067;28;700;-71
2023/03/25 04:04:19;;;;;;;;;;;;;;;14.21;67.68;99652.66;1057381;28;645;-72
2023/03/25 04:05:10;;;;;;;;;;;;;;;14.20;68.51;99624.16;1056513;28;1337;-72
2023/03/25 04:06:00;;;;;;;;;;;;;;;14.17;68.28;99638.72;1056553;28;1162;-72
2023/03/25 04:06:55;;;;;;;;;;;;;;;14.14;68.80;99644.41;1056163;28;1055;-72
2023/03/25 04:07:53;;;;;;;;;;;;;;;14.17;68.21;99649.44;1054237;28;712;-72
2023/03/25 04:08:44;;;;;;;;;;;;;;;14.16;68.28;99642.38;1053755;28;685;-72
2023/03/25 04:09:39;;;;;;;;;;;;;;;14.15;68.59;99640.69;1055816;28;649;-72
2023/03/25 04:10:33;;;;;;;;;;;;;;;14.18;68.68;99648.44;1056362;28;705;-72
2023/03/25 04:11:24;;;;;;;;;;;;;;;14.22;68.04;99648.97;1056830;28;676;-72
2023/03/25 04:12:14;;;;;;;;;;;;;;;14.23;68.06;99656.88;1056478;28;1003;-71
2023/03/25 04:13:05;;;;;;;;;;;;;;;14.18;68.06;99653.78;1057918;28;805;-71
2023/03/25 04:13:55;;;;;;;;;;;;;;;14.19;68.57;99652.81;1055962;28;1239;-72
2023/03/25 04:14:46;;;;;;;;;;;;;;;14.18;68.22;99652.94;1056336;28;701;-71
2023/03/25 04:15:36;;;;;;;;;;;;;;;14.15;68.63;99647.91;1056350;28;1127;-71
2023/03/25 04:16:27;;;;;;;;;;;;;;;14.14;68.52;99647.09;1056111;28;711;-71
2023/03/25 04:17:17;;;;;;;;;;;;;;;14.17;68.93;99643.22;1056550;28;1157;-71
2023/03/25 04:18:08;;;;;;;;;;;;;;;14.17;68.58;99645.91;1054142;28;719;-71
2023/03/25 04:18:58;;;;;;;;;;;;;;;14.18;68.52;99648.44;1053756;28;661;-71
2023/03/25 04:19:52;;;;;;;;;;;;;;;14.17;68.22;99646.75;1054875;28;700;-72
2023/03/25 04:20:43;;;;;;;;;;;;;;;14.16;68.03;99638.84;1052027;28;642;-71
2023/03/25 04:21:34;;;;;;;;;;;;;;;14.18;68.41;99642.22;1052577;28;717;-72
2023/03/25 04:22:24;;;;;;;;;;;;;;;14.21;68.02;99639.25;1052418;28;670;-71
2023/03/25 04:23:15;;;;;;;;;;;;;;;14.19;67.94;99639.41;1060486;27;1220;-71
2023/03/25 04:24:07;;;;;;;;;;;;;;;14.18;68.21;99648.44;1060328;27;948;-71
2023/03/25 04:24:59;;;;;;;;;;;;;;;14.15;67.97;99640.69;1056610;28;638;-71
2023/03/25 04:25:52;;;;;;;;;;;;;;;14.14;68.46;99638.19;1053357;28;1633;-71
2023/03/25 04:26:42;;;;;;;;;;;;;;;14.15;67.96;99643.38;1056543;28;625;-70
2023/03/25 04:27:36;;;;;;;;;;;;;;;14.11;68.14;99644.69;1056718;28;787;-71
2023/03/25 04:28:26;;;;;;;;;;;;;;;14.12;68.80;99646.38;1051859;28;673;-72
2023/03/25 04:29:17;;;;;;;;;;;;;;;14.13;68.12;99641.88;1052976;28;864;-72
2023/03/25 04:30:08;;;;;;;;;;;;;;;14.10;68.51;99640.34;1055274;28;1222;-71
2023/03/25 04:30:59;;;;;;;;;;;;;;;14.10;68.87;99623.41;1053630;28;635;-72